createdAt,value
2023-04-28T00:01:53.452Z,10.05
2023-04-28T00:04:22.837Z,10.55
2023-04-28T00:06:52.867Z,10.32
2023-04-28T00:09:22.201Z,10.15
2023-04-28T00:11:51.656Z,8.93
2023-04-28T00:14:21.990Z,8.60
2023-04-28T00:16:52.667Z,9.85
2023-04-28T00:19:22.365Z,9.90
2023-04-28T00:21:51.583Z,9.27
2023-04-28T00:24:20.786Z,8.23
2023-04-28T00:26:49.848Z,9.82
2023-04-28T00:29:19.255Z,8.80
2023-04-28T00:31:49.309Z,8.75
2023-04-28T00:34:19.961Z,7.93
2023-04-28T00:36:49.286Z,8.38
2023-04-28T00:39:19.181Z,8.68
2023-04-28T00:41:48.506Z,7.00
2023-04-28T00:44:17.705Z,5.95
2023-04-28T00:46:47.860Z,5.82
2023-04-28T00:49:17.325Z,6.55
2023-04-28T00:51:47.913Z,5.65
2023-04-28T00:54:18.973Z,5.03
2023-04-28T00:56:48.801Z,5.77
2023-04-28T00:59:18.257Z,6.40
2023-04-28T01:01:49.040Z,7.85
2023-04-28T01:04:19.364Z,6.28
2023-04-28T01:06:52.642Z,4.95
2023-04-28T01:09:22.082Z,5.68
2023-04-28T01:11:53.353Z,5.68
2023-04-28T01:14:37.087Z,6.68
2023-04-28T01:17:06.139Z,5.63
2023-04-28T01:19:36.062Z,6.28
2023-04-28T01:22:06.721Z,6.20
2023-04-28T01:24:37.741Z,4.97
2023-04-28T01:27:09.242Z,6.03
2023-04-28T01:29:40.390Z,5.00
2023-04-28T01:32:09.527Z,5.15
2023-04-28T01:34:38.589Z,6.15
2023-04-28T01:37:08.864Z,6.00
2023-04-28T01:39:40.928Z,6.82
2023-04-28T01:42:09.957Z,6.85
2023-04-28T01:44:39.066Z,7.28
2023-04-28T01:47:08.572Z,9.02
2023-04-28T01:49:38.110Z,8.77
2023-04-28T01:52:10.185Z,10.50
2023-04-28T01:54:39.290Z,9.25
2023-04-28T01:57:10.229Z,9.55
2023-04-28T01:59:39.903Z,10.10
2023-04-28T02:02:09.169Z,10.00
2023-04-28T02:04:39.725Z,10.10
2023-04-28T02:07:08.991Z,11.35
2023-04-28T02:09:38.067Z,10.48
2023-04-28T02:12:08.205Z,11.20
2023-04-28T02:14:39.068Z,9.80
2023-04-28T02:17:08.054Z,9.75
2023-04-28T02:19:38.686Z,9.52
2023-04-28T02:22:08.497Z,10.40
2023-04-28T02:24:38.741Z,10.13
2023-04-28T02:27:07.897Z,9.88
2023-04-28T02:29:37.071Z,10.10
2023-04-28T02:32:08.682Z,8.40
2023-04-28T02:34:38.092Z,9.30
2023-04-28T02:37:07.529Z,10.40
2023-04-28T02:39:36.552Z,9.38
2023-04-28T02:42:05.750Z,11.38
2023-04-28T02:44:34.906Z,11.07
2023-04-28T02:47:04.207Z,11.57
2023-04-28T02:49:34.911Z,10.55
2023-04-28T02:52:04.118Z,11.07
2023-04-28T02:54:34.405Z,11.65
2023-04-28T02:57:04.834Z,10.95
2023-04-28T02:59:35.430Z,9.55
2023-04-28T03:02:04.643Z,10.50
2023-04-28T03:04:35.036Z,10.82
2023-04-28T03:07:04.342Z,10.63
2023-04-28T03:09:33.484Z,9.00
2023-04-28T03:12:03.486Z,10.35
2023-04-28T03:14:34.793Z,8.68
2023-04-28T03:17:04.688Z,8.75
2023-04-28T03:19:36.363Z,9.05
2023-04-28T03:22:05.702Z,8.70
2023-04-28T03:24:35.287Z,8.05
2023-04-28T03:27:05.852Z,8.15
2023-04-28T03:29:35.104Z,8.23
2023-04-28T03:32:04.267Z,8.02
2023-04-28T03:34:33.261Z,7.72
2023-04-28T03:37:03.800Z,8.07
2023-04-28T03:39:33.191Z,7.95
2023-04-28T03:42:02.282Z,7.55
2023-04-28T03:44:51.263Z,7.35
2023-04-28T03:47:20.527Z,6.57
2023-04-28T03:49:50.700Z,6.95
2023-04-28T03:52:21.220Z,7.78
2023-04-28T03:54:50.568Z,8.20
2023-04-28T03:57:23.466Z,8.98
2023-04-28T03:59:53.266Z,9.43
2023-04-28T04:02:22.683Z,9.32
2023-04-28T04:04:52.389Z,8.60
2023-04-28T04:07:24.172Z,9.45
2023-04-28T04:09:53.357Z,8.52
2023-04-28T04:12:22.478Z,9.25
2023-04-28T04:14:51.476Z,8.75
2023-04-28T04:17:22.125Z,9.70
2023-04-28T04:19:51.436Z,9.57
2023-04-28T04:22:20.825Z,7.65
2023-04-28T04:24:51.848Z,6.47
2023-04-28T04:27:21.120Z,6.63
2023-04-28T04:29:50.385Z,6.90
2023-04-28T04:32:19.971Z,8.23
2023-04-28T04:34:50.267Z,8.43
2023-04-28T04:37:20.041Z,8.63
2023-04-28T04:40:00.783Z,5.53
2023-04-28T04:42:36.635Z,6.43
2023-04-28T04:45:12.381Z,6.88
2023-04-28T04:47:42.450Z,7.28
2023-04-28T04:50:12.657Z,6.97
2023-04-28T04:52:45.776Z,6.50
2023-04-28T04:55:16.500Z,6.00
2023-04-28T04:57:48.398Z,5.82
2023-04-28T05:00:37.835Z,6.03
2023-04-28T05:03:07.991Z,6.90
2023-04-28T05:05:37.652Z,5.85
2023-04-28T05:08:23.118Z,6.60
2023-04-28T05:10:55.837Z,6.00
2023-04-28T05:13:28.780Z,6.20
2023-04-28T05:16:05.699Z,6.97
2023-04-28T05:18:53.782Z,6.05
2023-04-28T05:21:27.309Z,6.88
2023-04-28T05:23:57.407Z,6.13
2023-04-28T05:26:28.325Z,4.72
2023-04-28T05:29:04.962Z,5.32
2023-04-28T05:31:36.078Z,8.38
2023-04-28T05:34:06.055Z,6.53
2023-04-28T05:36:38.068Z,5.00
2023-04-28T05:39:12.808Z,6.30
2023-04-28T05:41:45.074Z,6.68
2023-04-28T05:44:15.090Z,7.88
2023-04-28T05:46:44.524Z,6.43
2023-04-28T05:49:13.921Z,6.75
2023-04-28T05:51:45.957Z,5.25
2023-04-28T05:54:17.937Z,4.68
2023-04-28T05:56:52.558Z,5.32
2023-04-28T05:59:24.699Z,5.22
2023-04-28T06:01:58.263Z,6.63
2023-04-28T06:04:27.874Z,5.68
2023-04-28T06:06:57.876Z,4.47
2023-04-28T06:09:27.613Z,4.35
2023-04-28T06:12:00.638Z,5.72
2023-04-28T06:14:32.796Z,6.95
2023-04-28T06:17:06.359Z,6.53
2023-04-28T06:19:38.854Z,5.57
2023-04-28T06:22:08.236Z,6.95
2023-04-28T06:24:38.158Z,6.65
2023-04-28T06:27:13.363Z,4.43
2023-04-28T06:29:42.751Z,4.18
2023-04-28T06:32:12.048Z,5.07
2023-04-28T06:34:41.891Z,5.28
2023-04-28T06:37:13.996Z,4.72
2023-04-28T06:39:44.076Z,4.88
2023-04-28T06:42:19.273Z,4.88
2023-04-28T06:44:56.341Z,5.07
2023-04-28T06:47:26.164Z,4.30
2023-04-28T06:49:58.767Z,5.00
2023-04-28T06:52:38.548Z,4.50
2023-04-28T06:55:17.775Z,5.40
2023-04-28T06:57:50.207Z,4.85
2023-04-28T07:00:19.736Z,4.50
2023-04-28T07:02:48.942Z,6.03
2023-04-28T07:05:18.023Z,6.40
2023-04-28T07:07:47.423Z,4.40
2023-04-28T07:10:16.986Z,4.68
2023-04-28T07:12:46.356Z,4.53
2023-04-28T07:15:17.691Z,4.97
2023-04-28T07:17:47.432Z,6.32
2023-04-28T07:20:16.981Z,15.05
2023-04-28T07:22:49.252Z,4.70
2023-04-28T07:27:48.104Z,5.15
2023-04-28T07:32:54.849Z,6.13
2023-04-28T07:35:23.912Z,4.22
2023-04-28T07:37:53.605Z,5.55
2023-04-28T07:40:26.495Z,5.32
2023-04-28T07:42:57.964Z,4.07
2023-04-28T07:45:30.964Z,5.28
2023-04-28T07:48:00.049Z,5.70
2023-04-28T07:50:29.512Z,6.45
2023-04-28T07:53:00.650Z,4.68
2023-04-28T07:55:34.583Z,5.20
2023-04-28T07:58:03.835Z,6.20
2023-04-28T08:00:36.579Z,6.05
2023-04-28T08:03:05.993Z,5.72
2023-04-28T08:05:35.383Z,5.63
2023-04-28T08:08:04.500Z,6.03
2023-04-28T08:10:33.783Z,4.40
2023-04-28T08:13:05.041Z,5.25
2023-04-28T08:15:35.867Z,5.28
2023-04-28T08:18:05.633Z,5.25
2023-04-28T08:20:41.260Z,4.68
2023-04-28T08:23:10.900Z,5.72
2023-04-28T08:25:42.797Z,5.60
2023-04-28T08:28:14.474Z,4.63
2023-04-28T08:30:46.319Z,5.15
2023-04-28T08:35:48.798Z,4.53
2023-04-28T08:38:18.395Z,4.68
2023-04-28T08:40:47.876Z,3.78
2023-04-28T08:43:17.164Z,3.67
2023-04-28T08:45:48.024Z,4.28
2023-04-28T08:48:23.082Z,4.93
2023-04-28T08:50:53.615Z,4.03
2023-04-28T08:53:26.580Z,4.18
2023-04-28T08:55:57.645Z,5.40
2023-04-28T08:58:27.461Z,6.55
2023-04-28T09:01:04.858Z,5.70
2023-04-28T09:03:34.894Z,5.50
2023-04-28T09:06:04.358Z,7.32
2023-04-28T09:08:33.803Z,6.30
2023-04-28T09:11:14.856Z,5.72
2023-04-28T09:13:44.383Z,6.13
2023-04-28T09:16:16.532Z,5.47
2023-04-28T09:18:58.271Z,4.93
2023-04-28T09:21:48.198Z,7.38
2023-04-28T09:24:35.617Z,5.57
2023-04-28T09:27:11.492Z,4.97
2023-04-28T09:29:41.153Z,4.90
2023-04-28T09:32:19.111Z,7.07
2023-04-28T09:34:50.239Z,4.63
2023-04-28T09:37:20.416Z,5.82
2023-04-28T09:39:51.003Z,4.40
2023-04-28T09:42:33.737Z,5.75
2023-04-28T09:45:06.433Z,6.10
2023-04-28T09:47:38.735Z,5.63
2023-04-28T09:50:13.494Z,5.45
2023-04-28T09:52:46.949Z,4.75
2023-04-28T09:55:17.917Z,5.68
2023-04-28T09:57:50.070Z,5.70
2023-04-28T10:00:20.469Z,6.80
2023-04-28T10:02:52.023Z,5.63
2023-04-28T10:05:26.136Z,5.93
2023-04-28T10:08:01.601Z,5.07
2023-04-28T10:10:40.334Z,5.68
2023-04-28T10:13:09.380Z,5.85
2023-04-28T10:15:43.028Z,6.30
2023-04-28T10:18:15.880Z,5.90
2023-04-28T10:20:46.389Z,6.05
2023-04-28T10:23:39.682Z,5.75
2023-04-28T10:26:14.916Z,4.57
2023-04-28T10:28:49.134Z,5.22
2023-04-28T10:31:21.177Z,5.47
2023-04-28T10:36:43.995Z,6.20
2023-04-28T10:39:17.403Z,6.82
2023-04-28T10:41:50.167Z,5.57
2023-04-28T10:44:38.989Z,6.30
2023-04-28T10:47:09.830Z,5.55
2023-04-28T10:49:59.618Z,7.05
2023-04-28T10:52:47.537Z,6.47
2023-04-28T10:55:33.226Z,6.38
2023-04-28T10:58:33.372Z,5.82
2023-04-28T11:01:22.084Z,6.25
2023-04-28T11:03:54.962Z,6.70
2023-04-28T11:06:28.718Z,4.63
2023-04-28T11:09:00.747Z,5.32
2023-04-28T11:11:32.788Z,5.15
2023-04-28T11:14:31.814Z,6.30
2023-04-28T11:17:04.124Z,12.75
2023-04-28T11:19:34.409Z,23.25
2023-04-28T11:22:04.428Z,6.15
2023-04-28T11:24:34.514Z,6.20
2023-04-28T11:27:12.212Z,5.30
2023-04-28T11:29:42.977Z,8.55
2023-04-28T11:32:30.063Z,5.90
2023-04-28T11:34:59.634Z,5.85
2023-04-28T11:37:30.937Z,5.35
2023-04-28T11:40:00.335Z,6.68
2023-04-28T11:42:31.927Z,7.90
2023-04-28T11:45:01.224Z,6.32
2023-04-28T11:47:32.750Z,7.63
2023-04-28T11:50:03.448Z,6.45
2023-04-28T11:52:32.810Z,5.10
2023-04-28T11:55:05.356Z,4.78
2023-04-28T11:57:39.852Z,5.78
2023-04-28T12:00:19.774Z,6.57
2023-04-28T12:02:49.573Z,6.20
2023-04-28T12:05:20.922Z,6.88
2023-04-28T12:07:50.493Z,6.07
2023-04-28T12:10:22.184Z,5.75
2023-04-28T12:12:53.482Z,6.68
2023-04-28T12:15:25.179Z,6.07
2023-04-28T12:17:54.592Z,7.95
2023-04-28T12:20:39.757Z,6.57
2023-04-28T12:23:09.579Z,5.13
2023-04-28T12:25:45.666Z,6.60
2023-04-28T12:28:16.369Z,6.57
2023-04-28T12:30:46.373Z,7.13
2023-04-28T12:33:25.727Z,7.32
2023-04-28T12:35:56.090Z,6.32
2023-04-28T12:38:25.920Z,6.47
2023-04-28T12:40:56.429Z,5.88
2023-04-28T12:43:29.638Z,5.18
2023-04-28T12:45:58.669Z,6.55
2023-04-28T12:48:28.307Z,7.07
2023-04-28T12:50:57.753Z,6.70
2023-04-28T12:53:27.205Z,5.32
2023-04-28T12:55:58.903Z,4.60
2023-04-28T12:58:37.339Z,5.07
2023-04-28T13:01:16.174Z,7.15
2023-04-28T13:03:45.580Z,7.75
2023-04-28T13:06:15.570Z,6.72
2023-04-28T13:08:45.084Z,6.00
2023-04-28T13:11:22.661Z,6.03
2023-04-28T13:13:57.145Z,6.47
2023-04-28T13:16:29.021Z,6.97
2023-04-28T13:18:59.280Z,7.13
2023-04-28T13:21:29.514Z,6.07
2023-04-28T13:23:58.750Z,6.82
2023-04-28T13:26:31.688Z,6.60
2023-04-28T13:29:02.458Z,7.78
2023-04-28T13:31:32.133Z,6.72
2023-04-28T13:34:02.311Z,7.35
2023-04-28T13:36:32.689Z,7.30
2023-04-28T13:39:03.079Z,5.57
2023-04-28T13:41:33.109Z,6.32
2023-04-28T13:44:07.204Z,6.28
2023-04-28T13:46:39.476Z,6.30
2023-04-28T13:49:12.622Z,6.38
2023-04-28T13:51:42.044Z,5.47
2023-04-28T13:54:11.818Z,5.18
2023-04-28T13:56:41.500Z,5.32
2023-04-28T13:59:13.081Z,5.70
2023-04-28T14:01:43.637Z,6.10
2023-04-28T14:04:13.306Z,6.85
2023-04-28T14:06:46.058Z,7.43
2023-04-28T14:09:16.370Z,7.18
2023-04-28T14:11:46.689Z,6.55
2023-04-28T14:14:17.503Z,5.80
2023-04-28T14:16:47.661Z,5.30
2023-04-28T14:19:18.316Z,4.85
2023-04-28T14:21:48.160Z,5.47
2023-04-28T14:24:18.775Z,6.38
2023-04-28T14:26:49.648Z,5.35
2023-04-28T14:29:20.642Z,6.07
2023-04-28T14:31:52.986Z,5.07
2023-04-28T14:36:51.740Z,5.85
2023-04-28T14:39:21.237Z,7.13
2023-04-28T14:41:50.490Z,5.72
2023-04-28T14:44:22.771Z,6.88
2023-04-28T14:49:21.189Z,6.07
2023-04-28T14:51:51.140Z,5.80
2023-04-28T14:54:20.514Z,5.97
2023-04-28T14:56:50.698Z,6.20
2023-04-28T14:59:21.318Z,5.80
2023-04-28T15:01:51.789Z,4.38
2023-04-28T15:04:21.911Z,5.65
2023-04-28T15:06:51.218Z,5.97
2023-04-28T15:09:20.469Z,6.70
2023-04-28T15:11:49.807Z,6.78
2023-04-28T15:14:18.929Z,5.40
2023-04-28T15:16:50.409Z,6.40
2023-04-28T15:19:19.531Z,7.30
2023-04-28T15:21:49.371Z,6.60
2023-04-28T15:24:20.703Z,7.38
2023-04-28T15:26:53.713Z,7.15
2023-04-28T15:29:24.208Z,7.35
2023-04-28T15:31:56.713Z,6.47
2023-04-28T15:34:25.994Z,6.70
2023-04-28T15:36:55.300Z,5.90
2023-04-28T15:39:25.709Z,7.20
2023-04-28T15:41:58.872Z,6.63
2023-04-28T15:44:30.721Z,5.00
2023-04-28T15:47:02.181Z,6.72
2023-04-28T15:49:31.733Z,5.22
2023-04-28T15:52:01.287Z,6.15
2023-04-28T15:54:31.316Z,6.07
2023-04-28T15:57:01.700Z,6.43
2023-04-28T15:59:33.630Z,7.18
2023-04-28T16:02:04.539Z,5.78
2023-04-28T16:04:34.154Z,8.02
2023-04-28T16:07:13.339Z,7.03
2023-04-28T16:09:44.093Z,7.22
2023-04-28T16:12:13.363Z,6.35
2023-04-28T16:14:43.061Z,10.93
2023-04-28T16:17:14.608Z,10.68
2023-04-28T16:19:44.032Z,9.20
2023-04-28T16:22:13.290Z,7.10
2023-04-28T16:24:47.248Z,5.47
2023-04-28T16:27:16.727Z,6.55
2023-04-28T16:29:46.104Z,6.65
2023-04-28T16:32:18.010Z,7.90
2023-04-28T16:34:47.517Z,7.10
2023-04-28T16:37:17.544Z,7.97
2023-04-28T16:39:49.784Z,7.22
2023-04-28T16:44:53.460Z,8.45
2023-04-28T16:47:25.516Z,7.75
2023-04-28T16:52:24.960Z,9.27
2023-04-28T16:54:54.161Z,7.95
2023-04-28T16:57:23.894Z,9.60
2023-04-28T16:59:53.482Z,10.45
2023-04-28T17:02:24.506Z,8.25
2023-04-28T17:04:55.523Z,8.80
2023-04-28T17:07:27.770Z,7.93
2023-04-28T17:10:05.160Z,8.00
2023-04-28T17:12:35.493Z,7.00
2023-04-28T17:15:06.299Z,7.10
2023-04-28T17:17:37.502Z,7.45
2023-04-28T17:20:07.070Z,8.53
2023-04-28T17:22:36.498Z,7.07
2023-04-28T17:25:06.191Z,7.63
2023-04-28T17:27:39.169Z,7.95
2023-04-28T17:30:11.615Z,6.82
2023-04-28T17:32:42.418Z,7.57
2023-04-28T17:35:12.162Z,8.73
2023-04-28T17:37:42.974Z,7.97
2023-04-28T17:40:12.848Z,7.68
2023-04-28T17:42:42.408Z,7.15
2023-04-28T17:45:13.789Z,8.52
2023-04-28T17:47:50.785Z,7.38
2023-04-28T17:50:20.729Z,8.43
2023-04-28T17:52:50.353Z,9.68
2023-04-28T17:55:21.089Z,9.40
2023-04-28T17:57:51.818Z,8.50
2023-04-28T18:00:21.341Z,10.82
2023-04-28T18:05:26.578Z,8.95
2023-04-28T18:07:56.297Z,9.45
2023-04-28T18:10:29.668Z,8.13
2023-04-28T18:13:00.502Z,9.32
2023-04-28T18:15:30.583Z,10.40
2023-04-28T18:18:02.930Z,9.55
2023-04-28T18:20:36.322Z,9.65
2023-04-28T18:23:06.221Z,9.80
2023-04-28T18:25:36.493Z,9.20
2023-04-28T18:28:13.069Z,9.18
2023-04-28T18:30:41.610Z,9.32
2023-04-28T18:33:11.971Z,10.07
2023-04-28T18:35:42.843Z,10.30
2023-04-28T18:38:14.661Z,10.75
2023-04-28T18:40:44.286Z,10.25
2023-04-28T18:43:16.704Z,9.85
2023-04-28T18:45:45.895Z,8.43
2023-04-28T18:48:15.431Z,10.50
2023-04-28T18:50:47.925Z,11.32
2023-04-28T18:53:17.394Z,8.85
2023-04-28T18:55:47.630Z,10.80
2023-04-28T18:58:18.132Z,12.87
2023-04-28T19:00:48.810Z,10.60
2023-04-28T19:03:18.706Z,12.88
2023-04-28T19:05:49.745Z,15.15
2023-04-28T19:08:19.258Z,13.32
2023-04-28T19:10:49.099Z,13.10
2023-04-28T19:13:20.050Z,14.35
2023-04-28T19:15:49.623Z,14.43
2023-04-28T19:18:19.494Z,13.85
2023-04-28T19:20:52.350Z,12.95
2023-04-28T19:23:21.777Z,14.30
2023-04-28T19:25:51.105Z,13.75
2023-04-28T19:28:20.455Z,12.45
2023-04-28T19:30:50.184Z,13.20
2023-04-28T19:33:19.423Z,12.02
2023-04-28T19:35:50.287Z,11.43
2023-04-28T19:38:23.225Z,13.00
2023-04-28T19:41:01.757Z,13.75
2023-04-28T19:43:31.655Z,11.68
2023-04-28T19:46:00.942Z,20.55
2023-04-28T19:48:30.104Z,26.27
2023-04-28T19:51:00.618Z,28.23
2023-04-28T19:53:29.802Z,23.33
2023-04-28T19:56:04.507Z,25.52
2023-04-28T19:58:34.079Z,25.67
2023-04-28T20:01:03.352Z,24.50
2023-04-28T20:03:33.077Z,24.27
2023-04-28T20:06:05.396Z,20.42
2023-04-28T20:08:34.673Z,19.70
2023-04-28T20:11:05.270Z,18.10
2023-04-28T20:13:34.906Z,16.75
2023-04-28T20:16:04.297Z,17.05
2023-04-28T20:18:33.444Z,18.52
2023-04-28T20:21:03.501Z,18.23
2023-04-28T20:23:36.892Z,17.25
2023-04-28T20:26:06.219Z,17.80
2023-04-28T20:28:35.440Z,19.80
2023-04-28T20:31:04.695Z,17.25
2023-04-28T20:33:33.720Z,17.67
2023-04-28T20:36:03.389Z,18.92
2023-04-28T20:38:33.433Z,16.80
2023-04-28T20:41:04.498Z,18.63
2023-04-28T20:43:33.747Z,17.83
2023-04-28T20:46:02.883Z,17.83
2023-04-28T20:48:34.880Z,18.00
2023-04-28T20:51:03.995Z,19.20
2023-04-28T20:53:33.303Z,16.95
2023-04-28T20:56:04.182Z,16.25
2023-04-28T20:58:33.434Z,16.25
2023-04-28T21:01:03.341Z,15.85
2023-04-28T21:03:32.542Z,14.65
2023-04-28T21:06:01.872Z,15.35
2023-04-28T21:08:31.065Z,16.77
2023-04-28T21:11:00.384Z,15.63
2023-04-28T21:13:34.833Z,16.05
2023-04-28T21:16:04.826Z,16.13
2023-04-28T21:18:34.167Z,16.30
2023-04-28T21:21:03.728Z,14.90
2023-04-28T21:23:37.732Z,16.23
2023-04-28T21:26:07.905Z,16.15
2023-04-28T21:28:40.052Z,16.73
2023-04-28T21:31:09.969Z,16.63
2023-04-28T21:33:39.255Z,17.98
2023-04-28T21:36:09.238Z,16.77
2023-04-28T21:38:39.118Z,16.00
2023-04-28T21:41:08.868Z,15.98
2023-04-28T21:43:39.458Z,14.95
2023-04-28T21:46:10.034Z,15.10
2023-04-28T21:48:39.330Z,15.82
2023-04-28T21:51:08.720Z,15.05
2023-04-28T21:53:41.351Z,15.73
2023-04-28T21:56:10.523Z,17.23
2023-04-28T21:58:41.905Z,15.73
2023-04-28T22:01:12.030Z,15.52
2023-04-28T22:03:42.318Z,16.05
2023-04-28T22:06:24.914Z,15.18
2023-04-28T22:11:23.362Z,16.23
2023-04-28T22:14:02.205Z,17.52
2023-04-28T22:16:31.773Z,18.98
2023-04-28T22:19:03.854Z,18.77
2023-04-28T22:21:33.563Z,17.40
2023-04-28T22:24:07.094Z,22.17
2023-04-28T22:26:38.211Z,19.15
2023-04-28T22:29:12.473Z,21.40
2023-04-28T22:31:44.019Z,19.23
2023-04-28T22:34:13.396Z,19.48
2023-04-28T22:36:43.090Z,21.48
2023-04-28T22:39:15.633Z,19.27
2023-04-28T22:41:45.955Z,21.42
2023-04-28T22:44:17.056Z,18.63
2023-04-28T22:46:46.261Z,17.30
2023-04-28T22:49:15.661Z,18.70
2023-04-28T22:51:45.112Z,19.35
2023-04-28T22:54:18.214Z,19.92
2023-04-28T22:56:47.563Z,18.17
2023-04-28T22:59:18.304Z,18.83
2023-04-28T23:01:51.271Z,21.67
2023-04-28T23:04:21.882Z,20.10
2023-04-28T23:06:54.624Z,19.35
2023-04-28T23:09:26.842Z,21.80
2023-04-28T23:11:56.890Z,20.88
2023-04-28T23:14:27.737Z,19.48
2023-04-28T23:16:58.561Z,18.20
2023-04-28T23:19:30.346Z,21.45
2023-04-28T23:21:59.944Z,20.98
2023-04-28T23:24:32.900Z,22.30
2023-04-28T23:27:02.657Z,21.17
2023-04-28T23:29:33.669Z,22.67
2023-04-28T23:32:03.646Z,21.88
2023-04-28T23:34:33.300Z,19.92
2023-04-28T23:37:03.184Z,22.13
2023-04-28T23:39:34.069Z,19.80
2023-04-28T23:42:03.588Z,21.55
2023-04-28T23:44:34.470Z,19.80
2023-04-28T23:47:03.781Z,18.27
2023-04-28T23:49:36.286Z,20.42
2023-04-28T23:52:05.426Z,19.50
2023-04-28T23:54:34.760Z,20.58
2023-04-28T23:57:04.721Z,20.98
2023-04-28T23:59:35.729Z,19.83
